sensor_id;sensor_type;location;lat;lon;timestamp;P1;durP1;ratioP1;P2;durP2;ratioP2
35434;SDS011;21556;55.782;37.528;2023-02-14T00:00:16;3.23;;;1.07;;
35434;SDS011;21556;55.782;37.528;2023-02-14T00:02:43;6.10;;;1.17;;
35434;SDS011;21556;55.782;37.528;2023-02-14T00:05:09;4.70;;;1.70;;
35434;SDS011;21556;55.782;37.528;2023-02-14T00:07:35;3.87;;;1.67;;
35434;SDS011;21556;55.782;37.528;2023-02-14T00:10:02;2.77;;;1.13;;
35434;SDS011;21556;55.782;37.528;2023-02-14T00:12:29;4.90;;;1.43;;
35434;SDS011;21556;55.782;37.528;2023-02-14T00:14:55;2.20;;;1.33;;
35434;SDS011;21556;55.782;37.528;2023-02-14T00:17:39;2.60;;;1.53;;
35434;SDS011;21556;55.782;37.528;2023-02-14T00:20:05;2.93;;;1.50;;
35434;SDS011;21556;55.782;37.528;2023-02-14T00:22:31;2.57;;;1.27;;
35434;SDS011;21556;55.782;37.528;2023-02-14T00:24:57;2.27;;;1.37;;
35434;SDS011;21556;55.782;37.528;2023-02-14T00:27:23;3.77;;;1.80;;
35434;SDS011;21556;55.782;37.528;2023-02-14T00:29:49;5.07;;;1.73;;
35434;SDS011;21556;55.782;37.528;2023-02-14T00:32:15;5.60;;;1.60;;
35434;SDS011;21556;55.782;37.528;2023-02-14T00:34:41;5.27;;;1.90;;
35434;SDS011;21556;55.782;37.528;2023-02-14T00:37:09;6.50;;;1.73;;
35434;SDS011;21556;55.782;37.528;2023-02-14T00:39:35;4.87;;;1.50;;
35434;SDS011;21556;55.782;37.528;2023-02-14T00:42:04;3.10;;;1.27;;
35434;SDS011;21556;55.782;37.528;2023-02-14T00:44:30;5.30;;;1.83;;
35434;SDS011;21556;55.782;37.528;2023-02-14T00:46:56;6.07;;;1.77;;
35434;SDS011;21556;55.782;37.528;2023-02-14T00:49:22;2.20;;;1.30;;
35434;SDS011;21556;55.782;37.528;2023-02-14T00:51:48;4.67;;;2.00;;
35434;SDS011;21556;55.782;37.528;2023-02-14T00:54:14;2.47;;;1.27;;
35434;SDS011;21556;55.782;37.528;2023-02-14T00:56:40;4.23;;;1.90;;
35434;SDS011;21556;55.782;37.528;2023-02-14T00:59:07;5.40;;;1.70;;
35434;SDS011;21556;55.782;37.528;2023-02-14T01:01:33;5.37;;;2.00;;
35434;SDS011;21556;55.782;37.528;2023-02-14T01:04:01;3.63;;;1.70;;
35434;SDS011;21556;55.782;37.528;2023-02-14T01:06:27;5.47;;;2.00;;
35434;SDS011;21556;55.782;37.528;2023-02-14T01:08:55;4.80;;;1.60;;
35434;SDS011;21556;55.782;37.528;2023-02-14T01:11:22;5.37;;;1.43;;
35434;SDS011;21556;55.782;37.528;2023-02-14T01:13:52;4.73;;;1.80;;
35434;SDS011;21556;55.782;37.528;2023-02-14T01:16:22;5.60;;;2.20;;
35434;SDS011;21556;55.782;37.528;2023-02-14T01:18:49;6.57;;;3.33;;
35434;SDS011;21556;55.782;37.528;2023-02-14T01:21:20;3.67;;;1.73;;
35434;SDS011;21556;55.782;37.528;2023-02-14T01:23:49;7.77;;;2.20;;
35434;SDS011;21556;55.782;37.528;2023-02-14T01:26:18;6.90;;;2.00;;
35434;SDS011;21556;55.782;37.528;2023-02-14T01:28:45;4.37;;;1.87;;
35434;SDS011;21556;55.782;37.528;2023-02-14T01:31:14;5.23;;;1.77;;
35434;SDS011;21556;55.782;37.528;2023-02-14T01:33:42;5.40;;;2.33;;
35434;SDS011;21556;55.782;37.528;2023-02-14T01:36:23;3.20;;;1.42;;
35434;SDS011;21556;55.782;37.528;2023-02-14T01:38:55;4.80;;;2.00;;
35434;SDS011;21556;55.782;37.528;2023-02-14T01:46:27;4.10;;;1.70;;
35434;SDS011;21556;55.782;37.528;2023-02-14T01:48:58;4.10;;;1.53;;
35434;SDS011;21556;55.782;37.528;2023-02-14T01:51:30;3.93;;;2.13;;
35434;SDS011;21556;55.782;37.528;2023-02-14T01:53:59;3.40;;;2.00;;
35434;SDS011;21556;55.782;37.528;2023-02-14T01:56:28;5.53;;;2.20;;
35434;SDS011;21556;55.782;37.528;2023-02-14T01:59:00;2.97;;;1.57;;
35434;SDS011;21556;55.782;37.528;2023-02-14T02:01:31;4.17;;;1.40;;
35434;SDS011;21556;55.782;37.528;2023-02-14T02:04:09;2.83;;;1.20;;
35434;SDS011;21556;55.782;37.528;2023-02-14T02:06:41;3.93;;;1.57;;
35434;SDS011;21556;55.782;37.528;2023-02-14T02:09:17;1.50;;;1.10;;
35434;SDS011;21556;55.782;37.528;2023-02-14T02:11:48;3.40;;;1.20;;
35434;SDS011;21556;55.782;37.528;2023-02-14T02:14:16;1.60;;;1.10;;
35434;SDS011;21556;55.782;37.528;2023-02-14T02:37:49;4.70;;;2.53;;
35434;SDS011;21556;55.782;37.528;2023-02-14T02:46:39;4.77;;;2.33;;
35434;SDS011;21556;55.782;37.528;2023-02-14T02:52:12;4.53;;;2.30;;
35434;SDS011;21556;55.782;37.528;2023-02-14T02:55:01;4.03;;;2.40;;
35434;SDS011;21556;55.782;37.528;2023-02-14T02:57:34;4.23;;;2.70;;
35434;SDS011;21556;55.782;37.528;2023-02-14T03:00:04;5.53;;;2.93;;
35434;SDS011;21556;55.782;37.528;2023-02-14T03:02:34;5.33;;;2.33;;
35434;SDS011;21556;55.782;37.528;2023-02-14T03:05:23;4.40;;;2.67;;
35434;SDS011;21556;55.782;37.528;2023-02-14T03:07:50;6.90;;;2.77;;
35434;SDS011;21556;55.782;37.528;2023-02-14T03:10:26;6.32;;;2.47;;
35434;SDS011;21556;55.782;37.528;2023-02-14T03:15:40;4.73;;;2.30;;
35434;SDS011;21556;55.782;37.528;2023-02-14T03:30:02;5.37;;;2.57;;
35434;SDS011;21556;55.782;37.528;2023-02-14T03:37:54;7.80;;;2.40;;
35434;SDS011;21556;55.782;37.528;2023-02-14T03:41:01;3.78;;;1.83;;
35434;SDS011;21556;55.782;37.528;2023-02-14T03:46:19;6.80;;;2.10;;
35434;SDS011;21556;55.782;37.528;2023-02-14T03:48:50;3.10;;;1.90;;
35434;SDS011;21556;55.782;37.528;2023-02-14T03:51:18;3.67;;;1.93;;
35434;SDS011;21556;55.782;37.528;2023-02-14T03:53:47;4.43;;;1.80;;
35434;SDS011;21556;55.782;37.528;2023-02-14T03:56:21;4.17;;;2.57;;
35434;SDS011;21556;55.782;37.528;2023-02-14T03:59:19;4.63;;;2.00;;
35434;SDS011;21556;55.782;37.528;2023-02-14T04:02:10;3.50;;;1.97;;
35434;SDS011;21556;55.782;37.528;2023-02-14T04:04:44;4.60;;;1.60;;
35434;SDS011;21556;55.782;37.528;2023-02-14T04:07:13;2.83;;;1.47;;
35434;SDS011;21556;55.782;37.528;2023-02-14T04:09:41;4.43;;;1.80;;
35434;SDS011;21556;55.782;37.528;2023-02-14T04:12:08;5.87;;;1.80;;
35434;SDS011;21556;55.782;37.528;2023-02-14T04:14:34;3.10;;;1.13;;
35434;SDS011;21556;55.782;37.528;2023-02-14T04:17:01;3.73;;;1.33;;
35434;SDS011;21556;55.782;37.528;2023-02-14T04:19:45;3.53;;;1.37;;
35434;SDS011;21556;55.782;37.528;2023-02-14T04:22:11;4.53;;;1.23;;
35434;SDS011;21556;55.782;37.528;2023-02-14T04:24:37;3.37;;;1.20;;
35434;SDS011;21556;55.782;37.528;2023-02-14T04:27:03;2.70;;;1.10;;
35434;SDS011;21556;55.782;37.528;2023-02-14T04:29:36;3.63;;;1.30;;
35434;SDS011;21556;55.782;37.528;2023-02-14T04:32:02;2.43;;;1.13;;
35434;SDS011;21556;55.782;37.528;2023-02-14T04:34:29;4.47;;;1.43;;
35434;SDS011;21556;55.782;37.528;2023-02-14T04:36:55;2.97;;;1.53;;
35434;SDS011;21556;55.782;37.528;2023-02-14T04:39:21;2.97;;;1.37;;
35434;SDS011;21556;55.782;37.528;2023-02-14T04:41:47;3.67;;;1.20;;
35434;SDS011;21556;55.782;37.528;2023-02-14T04:44:22;4.50;;;1.13;;
35434;SDS011;21556;55.782;37.528;2023-02-14T04:46:49;4.57;;;0.90;;
35434;SDS011;21556;55.782;37.528;2023-02-14T04:49:15;6.67;;;1.73;;
35434;SDS011;21556;55.782;37.528;2023-02-14T04:51:41;4.33;;;1.00;;
35434;SDS011;21556;55.782;37.528;2023-02-14T04:54:07;3.77;;;1.00;;
35434;SDS011;21556;55.782;37.528;2023-02-14T04:56:33;7.43;;;1.57;;
35434;SDS011;21556;55.782;37.528;2023-02-14T04:58:59;3.73;;;0.97;;
35434;SDS011;21556;55.782;37.528;2023-02-14T05:01:25;6.20;;;1.70;;
35434;SDS011;21556;55.782;37.528;2023-02-14T05:03:51;3.50;;;1.40;;
35434;SDS011;21556;55.782;37.528;2023-02-14T05:06:17;3.67;;;1.40;;
35434;SDS011;21556;55.782;37.528;2023-02-14T05:08:44;3.33;;;1.33;;
35434;SDS011;21556;55.782;37.528;2023-02-14T05:11:10;4.50;;;1.07;;
35434;SDS011;21556;55.782;37.528;2023-02-14T05:13:36;2.27;;;0.70;;
35434;SDS011;21556;55.782;37.528;2023-02-14T05:16:02;4.70;;;1.03;;
35434;SDS011;21556;55.782;37.528;2023-02-14T05:18:28;4.50;;;0.90;;
35434;SDS011;21556;55.782;37.528;2023-02-14T05:20:53;2.07;;;1.17;;
35434;SDS011;21556;55.782;37.528;2023-02-14T05:23:20;1.20;;;0.70;;
35434;SDS011;21556;55.782;37.528;2023-02-14T05:25:47;2.03;;;0.93;;
35434;SDS011;21556;55.782;37.528;2023-02-14T05:28:13;5.87;;;1.13;;
35434;SDS011;21556;55.782;37.528;2023-02-14T05:30:40;4.00;;;0.87;;
35434;SDS011;21556;55.782;37.528;2023-02-14T05:33:06;5.03;;;0.93;;
35434;SDS011;21556;55.782;37.528;2023-02-14T05:35:32;1.77;;;0.87;;
35434;SDS011;21556;55.782;37.528;2023-02-14T05:37:58;2.70;;;1.17;;
35434;SDS011;21556;55.782;37.528;2023-02-14T05:40:27;3.15;;;1.13;;
35434;SDS011;21556;55.782;37.528;2023-02-14T05:42:53;2.53;;;1.33;;
35434;SDS011;21556;55.782;37.528;2023-02-14T05:45:20;1.10;;;0.63;;
35434;SDS011;21556;55.782;37.528;2023-02-14T05:47:47;1.80;;;0.97;;
35434;SDS011;21556;55.782;37.528;2023-02-14T05:50:19;1.10;;;0.70;;
35434;SDS011;21556;55.782;37.528;2023-02-14T05:52:45;6.00;;;0.90;;
35434;SDS011;21556;55.782;37.528;2023-02-14T05:55:10;2.17;;;0.90;;
35434;SDS011;21556;55.782;37.528;2023-02-14T05:57:38;4.90;;;1.23;;
35434;SDS011;21556;55.782;37.528;2023-02-14T06:00:04;1.13;;;0.77;;
35434;SDS011;21556;55.782;37.528;2023-02-14T06:02:38;1.97;;;1.07;;
35434;SDS011;21556;55.782;37.528;2023-02-14T06:05:04;5.00;;;1.17;;
35434;SDS011;21556;55.782;37.528;2023-02-14T06:07:30;3.90;;;1.20;;
35434;SDS011;21556;55.782;37.528;2023-02-14T06:09:56;1.70;;;0.97;;
35434;SDS011;21556;55.782;37.528;2023-02-14T06:12:22;2.70;;;1.10;;
35434;SDS011;21556;55.782;37.528;2023-02-14T06:14:47;3.33;;;2.10;;
35434;SDS011;21556;55.782;37.528;2023-02-14T06:17:13;3.47;;;0.93;;
35434;SDS011;21556;55.782;37.528;2023-02-14T06:19:39;2.80;;;1.10;;
35434;SDS011;21556;55.782;37.528;2023-02-14T06:22:05;2.57;;;1.00;;
35434;SDS011;21556;55.782;37.528;2023-02-14T06:24:31;4.00;;;1.10;;
35434;SDS011;21556;55.782;37.528;2023-02-14T06:26:57;2.20;;;1.27;;
35434;SDS011;21556;55.782;37.528;2023-02-14T06:29:24;4.37;;;1.23;;
35434;SDS011;21556;55.782;37.528;2023-02-14T06:31:50;4.97;;;1.83;;
35434;SDS011;21556;55.782;37.528;2023-02-14T06:34:16;4.30;;;1.10;;
35434;SDS011;21556;55.782;37.528;2023-02-14T06:36:42;3.47;;;1.47;;
35434;SDS011;21556;55.782;37.528;2023-02-14T06:39:07;5.07;;;1.40;;
35434;SDS011;21556;55.782;37.528;2023-02-14T06:41:33;4.63;;;1.33;;
35434;SDS011;21556;55.782;37.528;2023-02-14T06:43:59;3.47;;;1.43;;
35434;SDS011;21556;55.782;37.528;2023-02-14T06:46:25;6.13;;;2.17;;
35434;SDS011;21556;55.782;37.528;2023-02-14T06:48:51;3.50;;;2.03;;
35434;SDS011;21556;55.782;37.528;2023-02-14T06:51:17;3.80;;;1.23;;
35434;SDS011;21556;55.782;37.528;2023-02-14T06:53:43;3.30;;;1.37;;
35434;SDS011;21556;55.782;37.528;2023-02-14T06:56:09;7.33;;;1.63;;
35434;SDS011;21556;55.782;37.528;2023-02-14T06:58:35;3.97;;;1.43;;
35434;SDS011;21556;55.782;37.528;2023-02-14T07:01:03;6.28;;;1.60;;
35434;SDS011;21556;55.782;37.528;2023-02-14T07:03:29;4.03;;;1.70;;
35434;SDS011;21556;55.782;37.528;2023-02-14T07:05:56;5.60;;;1.77;;
35434;SDS011;21556;55.782;37.528;2023-02-14T07:08:22;2.90;;;1.65;;
35434;SDS011;21556;55.782;37.528;2023-02-14T07:10:48;5.17;;;1.90;;
35434;SDS011;21556;55.782;37.528;2023-02-14T07:13:17;7.10;;;1.67;;
35434;SDS011;21556;55.782;37.528;2023-02-14T07:15:43;4.03;;;1.50;;
35434;SDS011;21556;55.782;37.528;2023-02-14T07:18:13;3.70;;;1.33;;
35434;SDS011;21556;55.782;37.528;2023-02-14T07:20:39;4.97;;;1.87;;
35434;SDS011;21556;55.782;37.528;2023-02-14T07:23:05;3.60;;;1.53;;
35434;SDS011;21556;55.782;37.528;2023-02-14T07:25:30;9.37;;;2.47;;
35434;SDS011;21556;55.782;37.528;2023-02-14T07:27:56;6.60;;;1.63;;
35434;SDS011;21556;55.782;37.528;2023-02-14T07:30:22;4.17;;;1.47;;
35434;SDS011;21556;55.782;37.528;2023-02-14T07:32:49;8.57;;;2.23;;
35434;SDS011;21556;55.782;37.528;2023-02-14T07:35:15;3.60;;;1.30;;
35434;SDS011;21556;55.782;37.528;2023-02-14T07:37:41;4.10;;;1.27;;
35434;SDS011;21556;55.782;37.528;2023-02-14T07:40:08;2.97;;;1.20;;
35434;SDS011;21556;55.782;37.528;2023-02-14T07:42:34;5.93;;;1.27;;
35434;SDS011;21556;55.782;37.528;2023-02-14T07:45:00;2.87;;;1.13;;
35434;SDS011;21556;55.782;37.528;2023-02-14T07:47:29;8.80;;;1.97;;
35434;SDS011;21556;55.782;37.528;2023-02-14T07:49:55;3.63;;;0.93;;
35434;SDS011;21556;55.782;37.528;2023-02-14T07:52:21;1.30;;;0.90;;
35434;SDS011;21556;55.782;37.528;2023-02-14T07:54:46;2.53;;;0.87;;
35434;SDS011;21556;55.782;37.528;2023-02-14T07:57:12;2.10;;;0.93;;
35434;SDS011;21556;55.782;37.528;2023-02-14T07:59:40;2.60;;;1.10;;
35434;SDS011;21556;55.782;37.528;2023-02-14T08:02:11;5.80;;;1.40;;
35434;SDS011;21556;55.782;37.528;2023-02-14T08:04:37;1.63;;;1.20;;
35434;SDS011;21556;55.782;37.528;2023-02-14T08:07:03;2.33;;;1.00;;
35434;SDS011;21556;55.782;37.528;2023-02-14T08:09:32;5.23;;;1.00;;
35434;SDS011;21556;55.782;37.528;2023-02-14T08:11:59;1.83;;;0.90;;
35434;SDS011;21556;55.782;37.528;2023-02-14T08:14:43;4.05;;;1.40;;
35434;SDS011;21556;55.782;37.528;2023-02-14T08:17:09;2.17;;;1.30;;
35434;SDS011;21556;55.782;37.528;2023-02-14T08:19:38;4.30;;;1.40;;
35434;SDS011;21556;55.782;37.528;2023-02-14T08:22:05;5.60;;;1.73;;
35434;SDS011;21556;55.782;37.528;2023-02-14T08:24:31;3.00;;;1.20;;
35434;SDS011;21556;55.782;37.528;2023-02-14T08:26:57;1.93;;;1.27;;
35434;SDS011;21556;55.782;37.528;2023-02-14T08:29:23;3.63;;;1.20;;
35434;SDS011;21556;55.782;37.528;2023-02-14T08:31:50;6.03;;;1.40;;
35434;SDS011;21556;55.782;37.528;2023-02-14T08:34:17;4.40;;;1.20;;
35434;SDS011;21556;55.782;37.528;2023-02-14T08:36:43;1.97;;;1.20;;
35434;SDS011;21556;55.782;37.528;2023-02-14T08:39:09;3.23;;;0.93;;
35434;SDS011;21556;55.782;37.528;2023-02-14T08:41:36;2.80;;;1.13;;
35434;SDS011;21556;55.782;37.528;2023-02-14T08:44:02;4.77;;;1.67;;
35434;SDS011;21556;55.782;37.528;2023-02-14T08:46:28;5.97;;;1.50;;
35434;SDS011;21556;55.782;37.528;2023-02-14T08:48:54;5.88;;;1.50;;
35434;SDS011;21556;55.782;37.528;2023-02-14T08:51:21;4.07;;;1.10;;
35434;SDS011;21556;55.782;37.528;2023-02-14T08:53:48;2.17;;;1.20;;
35434;SDS011;21556;55.782;37.528;2023-02-14T08:56:17;2.47;;;1.50;;
35434;SDS011;21556;55.782;37.528;2023-02-14T09:01:10;2.23;;;1.10;;
35434;SDS011;21556;55.782;37.528;2023-02-14T09:03:38;4.82;;;1.65;;
35434;SDS011;21556;55.782;37.528;2023-02-14T09:06:04;3.00;;;1.23;;
35434;SDS011;21556;55.782;37.528;2023-02-14T09:08:32;2.53;;;1.60;;
35434;SDS011;21556;55.782;37.528;2023-02-14T09:11:05;2.22;;;0.98;;
35434;SDS011;21556;55.782;37.528;2023-02-14T09:13:48;2.80;;;1.23;;
35434;SDS011;21556;55.782;37.528;2023-02-14T09:16:16;3.47;;;1.03;;
35434;SDS011;21556;55.782;37.528;2023-02-14T09:18:46;2.93;;;1.30;;
35434;SDS011;21556;55.782;37.528;2023-02-14T09:21:14;3.95;;;2.25;;
35434;SDS011;21556;55.782;37.528;2023-02-14T09:23:42;4.87;;;1.10;;
35434;SDS011;21556;55.782;37.528;2023-02-14T09:26:09;3.00;;;0.90;;
35434;SDS011;21556;55.782;37.528;2023-02-14T09:28:36;4.18;;;1.35;;
35434;SDS011;21556;55.782;37.528;2023-02-14T09:31:13;3.43;;;1.40;;
35434;SDS011;21556;55.782;37.528;2023-02-14T09:33:41;2.03;;;0.95;;
35434;SDS011;21556;55.782;37.528;2023-02-14T09:36:27;1.92;;;1.00;;
35434;SDS011;21556;55.782;37.528;2023-02-14T09:38:53;3.40;;;1.40;;
35434;SDS011;21556;55.782;37.528;2023-02-14T09:46:28;4.22;;;1.10;;
35434;SDS011;21556;55.782;37.528;2023-02-14T09:49:03;4.13;;;1.20;;
35434;SDS011;21556;55.782;37.528;2023-02-14T09:51:29;4.60;;;1.10;;
35434;SDS011;21556;55.782;37.528;2023-02-14T09:56:30;5.50;;;1.97;;
35434;SDS011;21556;55.782;37.528;2023-02-14T10:01:49;4.53;;;1.70;;
35434;SDS011;21556;55.782;37.528;2023-02-14T10:04:27;3.00;;;1.20;;
35434;SDS011;21556;55.782;37.528;2023-02-14T10:10:02;4.73;;;1.80;;
35434;SDS011;21556;55.782;37.528;2023-02-14T10:12:46;3.90;;;1.83;;
35434;SDS011;21556;55.782;37.528;2023-02-14T10:15:29;3.50;;;1.30;;
35434;SDS011;21556;55.782;37.528;2023-02-14T10:20:50;1.63;;;0.67;;
35434;SDS011;21556;55.782;37.528;2023-02-14T10:23:21;1.43;;;1.03;;
35434;SDS011;21556;55.782;37.528;2023-02-14T10:26:11;1.80;;;1.00;;
35434;SDS011;21556;55.782;37.528;2023-02-14T10:28:45;3.07;;;1.60;;
35434;SDS011;21556;55.782;37.528;2023-02-14T10:33:51;2.93;;;1.00;;
35434;SDS011;21556;55.782;37.528;2023-02-14T10:49:53;3.28;;;1.60;;
35434;SDS011;21556;55.782;37.528;2023-02-14T10:52:36;1.80;;;1.10;;
35434;SDS011;21556;55.782;37.528;2023-02-14T10:55:12;4.05;;;0.90;;
35434;SDS011;21556;55.782;37.528;2023-02-14T10:57:46;2.03;;;1.00;;
35434;SDS011;21556;55.782;37.528;2023-02-14T11:00:25;2.67;;;0.90;;
35434;SDS011;21556;55.782;37.528;2023-02-14T11:02:58;2.78;;;0.80;;
35434;SDS011;21556;55.782;37.528;2023-02-14T11:10:23;4.57;;;1.17;;
35434;SDS011;21556;55.782;37.528;2023-02-14T11:13:00;2.90;;;1.60;;
35434;SDS011;21556;55.782;37.528;2023-02-14T11:15:34;6.43;;;1.25;;
35434;SDS011;21556;55.782;37.528;2023-02-14T11:18:16;6.07;;;0.90;;
35434;SDS011;21556;55.782;37.528;2023-02-14T11:21:00;2.97;;;1.42;;
35434;SDS011;21556;55.782;37.528;2023-02-14T11:23:38;3.15;;;1.48;;
35434;SDS011;21556;55.782;37.528;2023-02-14T11:26:25;3.77;;;1.00;;
35434;SDS011;21556;55.782;37.528;2023-02-14T11:29:09;3.20;;;1.00;;
35434;SDS011;21556;55.782;37.528;2023-02-14T11:31:38;2.53;;;1.10;;
35434;SDS011;21556;55.782;37.528;2023-02-14T11:39:50;3.72;;;1.20;;
35434;SDS011;21556;55.782;37.528;2023-02-14T11:42:37;2.00;;;1.00;;
35434;SDS011;21556;55.782;37.528;2023-02-14T11:50:54;3.20;;;2.10;;
35434;SDS011;21556;55.782;37.528;2023-02-14T11:53:28;2.42;;;1.23;;
35434;SDS011;21556;55.782;37.528;2023-02-14T11:56:02;2.67;;;0.98;;
35434;SDS011;21556;55.782;37.528;2023-02-14T11:58:29;4.90;;;1.30;;
35434;SDS011;21556;55.782;37.528;2023-02-14T12:00:56;3.78;;;1.30;;
35434;SDS011;21556;55.782;37.528;2023-02-14T12:03:22;3.45;;;1.52;;
35434;SDS011;21556;55.782;37.528;2023-02-14T12:05:48;2.40;;;0.90;;
35434;SDS011;21556;55.782;37.528;2023-02-14T12:08:15;4.35;;;1.10;;
35434;SDS011;21556;55.782;37.528;2023-02-14T12:11:11;2.85;;;1.10;;
35434;SDS011;21556;55.782;37.528;2023-02-14T12:13:54;2.07;;;1.10;;
35434;SDS011;21556;55.782;37.528;2023-02-14T12:16:30;3.67;;;0.82;;
35434;SDS011;21556;55.782;37.528;2023-02-14T12:19:06;2.65;;;1.23;;
35434;SDS011;21556;55.782;37.528;2023-02-14T12:24:09;5.20;;;1.20;;
35434;SDS011;21556;55.782;37.528;2023-02-14T12:29:47;4.00;;;1.40;;
35434;SDS011;21556;55.782;37.528;2023-02-14T12:32:27;2.38;;;1.23;;
35434;SDS011;21556;55.782;37.528;2023-02-14T12:38:06;3.30;;;1.60;;
35434;SDS011;21556;55.782;37.528;2023-02-14T12:43:22;1.80;;;0.90;;
35434;SDS011;21556;55.782;37.528;2023-02-14T12:51:53;4.80;;;1.30;;
35434;SDS011;21556;55.782;37.528;2023-02-14T12:54:27;4.97;;;2.20;;
35434;SDS011;21556;55.782;37.528;2023-02-14T12:57:14;2.37;;;1.57;;
35434;SDS011;21556;55.782;37.528;2023-02-14T12:59:55;3.90;;;1.50;;
35434;SDS011;21556;55.782;37.528;2023-02-14T13:08:22;2.67;;;1.50;;
35434;SDS011;21556;55.782;37.528;2023-02-14T13:11:18;2.70;;;1.95;;
35434;SDS011;21556;55.782;37.528;2023-02-14T13:14:05;3.37;;;1.80;;
35434;SDS011;21556;55.782;37.528;2023-02-14T13:16:54;5.00;;;2.57;;
35434;SDS011;21556;55.782;37.528;2023-02-14T13:19:46;3.67;;;1.80;;
35434;SDS011;21556;55.782;37.528;2023-02-14T13:22:17;2.57;;;1.53;;
35434;SDS011;21556;55.782;37.528;2023-02-14T13:24:47;2.07;;;1.40;;
35434;SDS011;21556;55.782;37.528;2023-02-14T13:27:20;5.20;;;2.58;;
35434;SDS011;21556;55.782;37.528;2023-02-14T13:29:50;3.20;;;1.60;;
35434;SDS011;21556;55.782;37.528;2023-02-14T13:32:20;2.47;;;1.30;;
35434;SDS011;21556;55.782;37.528;2023-02-14T13:34:48;5.17;;;1.53;;
35434;SDS011;21556;55.782;37.528;2023-02-14T13:37:17;1.70;;;1.00;;
35434;SDS011;21556;55.782;37.528;2023-02-14T13:39:46;2.37;;;1.17;;
35434;SDS011;21556;55.782;37.528;2023-02-14T13:51:01;3.70;;;1.43;;
35434;SDS011;21556;55.782;37.528;2023-02-14T13:55:54;2.90;;;1.13;;
35434;SDS011;21556;55.782;37.528;2023-02-14T13:58:20;4.23;;;1.03;;
35434;SDS011;21556;55.782;37.528;2023-02-14T14:00:49;5.05;;;1.20;;
35434;SDS011;21556;55.782;37.528;2023-02-14T14:04:04;3.87;;;0.97;;
35434;SDS011;21556;55.782;37.528;2023-02-14T14:06:06;1.93;;;1.00;;
35434;SDS011;21556;55.782;37.528;2023-02-14T14:08:37;2.00;;;0.90;;
35434;SDS011;21556;55.782;37.528;2023-02-14T14:13:53;4.37;;;1.17;;
35434;SDS011;21556;55.782;37.528;2023-02-14T14:16:31;1.87;;;0.90;;
35434;SDS011;21556;55.782;37.528;2023-02-14T14:21:32;2.63;;;1.00;;
35434;SDS011;21556;55.782;37.528;2023-02-14T14:24:02;4.23;;;1.30;;
35434;SDS011;21556;55.782;37.528;2023-02-14T14:26:51;4.07;;;1.00;;
35434;SDS011;21556;55.782;37.528;2023-02-14T14:31:56;5.57;;;1.20;;
35434;SDS011;21556;55.782;37.528;2023-02-14T14:39:33;2.73;;;1.50;;
35434;SDS011;21556;55.782;37.528;2023-02-14T14:42:04;1.70;;;0.97;;
35434;SDS011;21556;55.782;37.528;2023-02-14T14:44:49;2.43;;;1.17;;
35434;SDS011;21556;55.782;37.528;2023-02-14T14:47:16;2.90;;;1.00;;
35434;SDS011;21556;55.782;37.528;2023-02-14T14:49:46;3.87;;;1.27;;
35434;SDS011;21556;55.782;37.528;2023-02-14T14:52:31;2.10;;;1.00;;
35434;SDS011;21556;55.782;37.528;2023-02-14T14:54:59;3.07;;;1.33;;
35434;SDS011;21556;55.782;37.528;2023-02-14T14:57:29;3.23;;;1.10;;
35434;SDS011;21556;55.782;37.528;2023-02-14T15:00:03;1.77;;;1.00;;
35434;SDS011;21556;55.782;37.528;2023-02-14T15:02:53;1.33;;;0.73;;
35434;SDS011;21556;55.782;37.528;2023-02-14T15:05:31;2.90;;;1.83;;
35434;SDS011;21556;55.782;37.528;2023-02-14T15:10:52;3.77;;;1.17;;
35434;SDS011;21556;55.782;37.528;2023-02-14T15:16:18;4.13;;;0.93;;
35434;SDS011;21556;55.782;37.528;2023-02-14T15:18:47;3.47;;;1.30;;
35434;SDS011;21556;55.782;37.528;2023-02-14T15:21:15;2.77;;;1.30;;
35434;SDS011;21556;55.782;37.528;2023-02-14T15:23:58;2.17;;;0.93;;
35434;SDS011;21556;55.782;37.528;2023-02-14T15:26:29;4.13;;;1.10;;
35434;SDS011;21556;55.782;37.528;2023-02-14T15:28:58;2.53;;;1.40;;
35434;SDS011;21556;55.782;37.528;2023-02-14T15:31:28;3.30;;;1.50;;
35434;SDS011;21556;55.782;37.528;2023-02-14T15:34:00;4.53;;;1.60;;
35434;SDS011;21556;55.782;37.528;2023-02-14T15:39:03;4.50;;;1.93;;
35434;SDS011;21556;55.782;37.528;2023-02-14T15:43:56;2.47;;;1.60;;
35434;SDS011;21556;55.782;37.528;2023-02-14T15:46:33;2.73;;;1.80;;
35434;SDS011;21556;55.782;37.528;2023-02-14T15:49:14;2.63;;;1.40;;
35434;SDS011;21556;55.782;37.528;2023-02-14T15:51:44;4.53;;;1.80;;
35434;SDS011;21556;55.782;37.528;2023-02-14T15:56:46;3.23;;;1.80;;
35434;SDS011;21556;55.782;37.528;2023-02-14T16:01:59;2.25;;;1.33;;
35434;SDS011;21556;55.782;37.528;2023-02-14T16:04:33;3.43;;;2.00;;
35434;SDS011;21556;55.782;37.528;2023-02-14T16:15:20;3.30;;;2.27;;
35434;SDS011;21556;55.782;37.528;2023-02-14T16:17:50;4.93;;;1.97;;
35434;SDS011;21556;55.782;37.528;2023-02-14T16:20:27;2.93;;;1.83;;
35434;SDS011;21556;55.782;37.528;2023-02-14T16:23:13;3.80;;;2.20;;
35434;SDS011;21556;55.782;37.528;2023-02-14T16:25:43;3.20;;;2.10;;
35434;SDS011;21556;55.782;37.528;2023-02-14T16:28:09;3.70;;;2.10;;
35434;SDS011;21556;55.782;37.528;2023-02-14T16:30:41;4.27;;;2.30;;
35434;SDS011;21556;55.782;37.528;2023-02-14T16:33:13;4.00;;;2.27;;
35434;SDS011;21556;55.782;37.528;2023-02-14T16:35:46;5.10;;;3.17;;
35434;SDS011;21556;55.782;37.528;2023-02-14T16:38:14;6.22;;;2.80;;
35434;SDS011;21556;55.782;37.528;2023-02-14T16:40:44;5.40;;;3.53;;
35434;SDS011;21556;55.782;37.528;2023-02-14T16:43:14;4.67;;;3.07;;
35434;SDS011;21556;55.782;37.528;2023-02-14T16:45:41;4.47;;;2.67;;
35434;SDS011;21556;55.782;37.528;2023-02-14T16:48:08;5.93;;;3.40;;
35434;SDS011;21556;55.782;37.528;2023-02-14T16:50:35;5.90;;;3.20;;
35434;SDS011;21556;55.782;37.528;2023-02-14T16:55:29;5.57;;;2.90;;
35434;SDS011;21556;55.782;37.528;2023-02-14T16:57:55;6.03;;;3.50;;
35434;SDS011;21556;55.782;37.528;2023-02-14T17:00:24;4.50;;;3.00;;
35434;SDS011;21556;55.782;37.528;2023-02-14T17:03:08;4.87;;;2.77;;
35434;SDS011;21556;55.782;37.528;2023-02-14T17:09:03;4.67;;;3.30;;
35434;SDS011;21556;55.782;37.528;2023-02-14T17:11:56;5.87;;;2.83;;
35434;SDS011;21556;55.782;37.528;2023-02-14T17:14:34;4.80;;;2.57;;
35434;SDS011;21556;55.782;37.528;2023-02-14T17:17:31;5.03;;;2.67;;
35434;SDS011;21556;55.782;37.528;2023-02-14T17:20:04;3.37;;;2.20;;
35434;SDS011;21556;55.782;37.528;2023-02-14T17:22:39;4.83;;;2.43;;
35434;SDS011;21556;55.782;37.528;2023-02-14T17:25:37;4.47;;;2.80;;
35434;SDS011;21556;55.782;37.528;2023-02-14T17:28:25;5.30;;;2.53;;
35434;SDS011;21556;55.782;37.528;2023-02-14T17:31:02;4.30;;;2.53;;
35434;SDS011;21556;55.782;37.528;2023-02-14T17:33:59;3.40;;;2.27;;
35434;SDS011;21556;55.782;37.528;2023-02-14T17:36:53;3.77;;;2.50;;
35434;SDS011;21556;55.782;37.528;2023-02-14T17:44:54;3.40;;;1.90;;
35434;SDS011;21556;55.782;37.528;2023-02-14T17:47:59;3.50;;;2.23;;
35434;SDS011;21556;55.782;37.528;2023-02-14T17:50:48;3.63;;;1.90;;
35434;SDS011;21556;55.782;37.528;2023-02-14T17:53:46;2.83;;;2.13;;
35434;SDS011;21556;55.782;37.528;2023-02-14T17:56:37;5.03;;;2.00;;
35434;SDS011;21556;55.782;37.528;2023-02-14T17:59:11;2.90;;;1.80;;
35434;SDS011;21556;55.782;37.528;2023-02-14T18:02:23;3.90;;;2.20;;
35434;SDS011;21556;55.782;37.528;2023-02-14T18:05:11;4.30;;;2.20;;
35434;SDS011;21556;55.782;37.528;2023-02-14T18:07:43;3.50;;;1.43;;
35434;SDS011;21556;55.782;37.528;2023-02-14T18:10:50;2.10;;;1.10;;